Time;durP1;ratioP1;P1;durP2;ratioP2;P2;SDS_P1;SDS_P2;PMS_P1;PMS_P2;Temp;Humidity;BMP_temperature;BMP_pressure;BME280_temperature;BME280_humidity;BME280_pressure;Samples;Min_cycle;Max_cycle;Signal;HPM_P1;HPM_P2
2020/12/08 00:01:46;;;;;;;11.10;10.10;;;;;;;6.12;60.35;96552.47;8267205;23;20229;-81
2020/12/08 00:05:47;;;;;;;11.13;10.13;;;;;;;6.48;59.50;96536.97;8295537;22;20448;-78
2020/12/08 00:09:49;;;;;;;11.00;10.03;;;;;;;6.22;60.74;96528.78;8301902;28;20224;-78
2020/12/08 00:13:51;;;;;;;11.47;10.47;;;;;;;6.13;60.63;96531.84;8301111;28;20228;-78
2020/12/08 00:17:53;;;;;;;11.83;10.77;;;;;;;6.16;60.13;96531.69;8302045;28;20196;-78
2020/12/08 00:21:55;;;;;;;11.70;10.50;;;;;;;6.23;60.49;96540.75;8301980;28;20205;-78
2020/12/08 00:25:57;;;;;;;10.97;9.97;;;;;;;6.26;60.71;96539.75;8301450;28;20209;-78
2020/12/08 00:29:59;;;;;;;12.33;11.23;;;;;;;6.16;60.75;96521.41;8301236;28;20546;-78
2020/12/08 00:34:02;;;;;;;13.07;11.87;;;;;;;6.16;60.89;96523.97;8300678;28;20225;-78
2020/12/08 00:38:04;;;;;;;11.33;10.37;;;;;;;6.14;61.03;96512.09;8300329;28;20301;-78
2020/12/08 00:42:06;;;;;;;10.90;10.00;;;;;;;6.14;61.20;96515.50;8306766;28;20208;-80
2020/12/08 00:46:10;;;;;;;12.67;11.57;;;;;;;6.11;61.25;96517.38;8312963;28;20201;-80
2020/12/08 00:50:12;;;;;;;13.30;11.90;;;;;;;6.11;61.09;96510.53;8311231;28;20212;-80
2020/12/08 00:54:14;;;;;;;13.30;12.20;;;;;;;6.05;60.87;96516.81;8305354;28;20222;-79
2020/12/08 00:58:16;;;;;;;11.63;10.63;;;;;;;6.15;61.03;96517.19;8309038;28;20208;-80
2020/12/08 01:02:18;;;;;;;11.10;9.97;;;;;;;6.08;61.25;96515.81;8311621;28;20212;-80
2020/12/08 01:06:20;;;;;;;11.60;10.50;;;;;;;6.09;61.02;96519.22;8288379;28;20695;-80
2020/12/08 01:10:22;;;;;;;11.73;10.73;;;;;;;6.07;61.15;96520.13;8278986;28;20214;-80
2020/12/08 01:14:24;;;;;;;12.77;11.67;;;;;;;6.00;61.25;96505.91;8278831;28;20586;-80
2020/12/08 01:18:25;;;;;;;12.80;11.70;;;;;;;6.02;61.27;96511.81;8279632;28;20202;-80
2020/12/08 01:22:28;;;;;;;12.90;11.80;;;;;;;6.05;61.30;96508.25;8281043;28;20212;-80
2020/12/08 01:26:30;;;;;;;12.73;11.63;;;;;;;6.02;61.19;96503.28;8282306;28;20206;-79
2020/12/08 01:30:31;;;;;;;14.03;12.83;;;;;;;5.98;60.50;96501.75;8277446;28;20202;-79
2020/12/08 01:34:33;;;;;;;12.70;11.60;;;;;;;5.96;60.72;96503.56;8277571;28;20221;-80
2020/12/08 01:38:36;;;;;;;12.93;11.83;;;;;;;5.96;60.51;96498.41;8285502;28;20204;-80
2020/12/08 01:42:39;;;;;;;13.67;12.37;;;;;;;5.99;60.57;96499.09;8277316;28;20237;-79
2020/12/08 01:46:41;;;;;;;13.57;12.37;;;;;;;5.89;60.17;96508.13;8276806;28;20205;-80
2020/12/08 01:50:44;;;;;;;13.67;12.47;;;;;;;5.96;60.62;96506.97;8279038;28;20214;-80
2020/12/08 01:54:47;;;;;;;14.13;12.93;;;;;;;5.94;60.54;96515.63;8282377;28;20225;-80
2020/12/08 01:58:49;;;;;;;13.60;12.40;;;;;;;5.97;60.91;96510.38;8283038;28;20220;-80
2020/12/08 02:02:50;;;;;;;13.63;12.43;;;;;;;5.95;61.14;96513.00;8283230;28;20221;-80
2020/12/08 02:06:52;;;;;;;12.63;11.53;;;;;;;5.99;61.08;96518.84;8283038;28;20238;-79
2020/12/08 02:10:54;;;;;;;13.50;12.40;;;;;;;5.93;60.80;96517.34;8282261;28;20202;-80
2020/12/08 02:14:56;;;;;;;13.83;12.60;;;;;;;5.95;61.03;96518.16;8283547;28;20591;-80
2020/12/08 02:24:21;;;;;;;14.30;12.90;;;;;;;5.80;60.88;96514.53;8284079;28;20554;-81
2020/12/08 02:28:23;;;;;;;14.50;13.07;;;;;;;5.82;60.62;96522.19;8288967;28;20241;-80
2020/12/08 02:32:25;;;;;;;15.13;13.67;;;;;;;5.60;61.18;96518.09;8285858;28;20233;-81
2020/12/08 02:36:27;;;;;;;14.63;13.23;;;;;;;5.81;61.25;96507.69;8285131;28;20225;-81
2020/12/08 02:40:30;;;;;;;14.23;12.93;;;;;;;5.76;61.08;96512.22;8286565;28;20228;-80
2020/12/08 02:44:31;;;;;;;14.23;12.93;;;;;;;5.76;61.73;96509.63;8286160;28;20220;-81
2020/12/08 02:48:33;;;;;;;14.70;13.40;;;;;;;5.82;61.20;96506.78;8288927;28;20202;-81
2020/12/08 02:52:35;;;;;;;13.80;12.60;;;;;;;5.83;61.65;96504.13;8291012;28;20206;-81
2020/12/08 02:56:38;;;;;;;13.90;12.50;;;;;;;5.80;61.52;96506.84;8288711;28;20232;-81
2020/12/08 03:00:40;;;;;;;15.00;13.67;;;;;;;5.82;60.82;96514.47;8287874;28;20558;-81
2020/12/08 03:04:42;;;;;;;13.77;12.57;;;;;;;5.81;61.58;96505.94;8272445;28;20229;-80
2020/12/08 03:08:44;;;;;;;15.20;13.70;;;;;;;5.83;61.61;96503.31;8283176;28;20244;-81
2020/12/08 03:12:47;;;;;;;14.90;13.50;;;;;;;5.78;61.51;96505.25;8283120;28;20289;-80
2020/12/08 03:16:49;;;;;;;13.67;12.47;;;;;;;5.84;61.98;96507.53;8290401;28;20226;-80
2020/12/08 03:20:51;;;;;;;14.37;13.10;;;;;;;5.78;61.79;96507.81;8283204;28;20213;-80
2020/12/08 03:24:53;;;;;;;13.83;12.63;;;;;;;5.82;61.21;96502.44;8277746;28;20213;-80
2020/12/08 03:28:55;;;;;;;14.57;13.17;;;;;;;5.81;61.64;96516.22;8279324;28;20206;-80
2020/12/08 03:32:58;;;;;;;12.80;11.70;;;;;;;5.70;61.88;96513.34;8280676;28;20197;-80
2020/12/08 03:37:00;;;;;;;13.43;12.23;;;;;;;5.64;62.02;96511.06;8278772;28;20210;-82
2020/12/08 03:41:02;;;;;;;13.50;12.30;;;;;;;5.58;62.46;96522.47;8280176;28;20211;-80
2020/12/08 03:45:05;;;;;;;13.73;12.43;;;;;;;5.65;62.25;96523.84;8279690;28;20645;-80
2020/12/08 03:49:06;;;;;;;14.13;12.70;;;;;;;5.65;62.39;96518.72;8278235;28;20202;-79
2020/12/08 03:53:08;;;;;;;13.80;12.60;;;;;;;5.54;62.40;96518.38;8277830;28;20560;-79
2020/12/08 03:57:10;;;;;;;13.43;12.23;;;;;;;5.60;62.62;96505.25;8279252;28;20209;-79
2020/12/08 04:01:15;;;;;;;14.23;12.93;;;;;;;5.53;62.55;96510.75;8282737;28;20201;-80
2020/12/08 04:05:17;;;;;;;15.27;13.87;;;;;;;5.40;63.09;96500.22;8279391;28;20238;-80
2020/12/08 04:09:19;;;;;;;15.67;13.63;;;;;;;5.47;63.08;96499.03;8279557;28;20206;-80
2020/12/08 04:13:21;;;;;;;16.73;15.13;;;;;;;5.18;63.50;96495.25;8279547;28;20226;-80
2020/12/08 04:17:23;;;;;;;16.37;14.87;;;;;;;5.19;63.94;96484.09;8279981;28;20547;-80
2020/12/08 04:21:26;;;;;;;16.17;14.67;;;;;;;5.29;63.69;96493.84;8281757;28;20216;-80
2020/12/08 04:25:28;;;;;;;17.03;15.40;;;;;;;5.08;63.64;96493.13;8284641;28;20691;-80
2020/12/08 04:29:30;;;;;;;16.27;14.87;;;;;;;4.75;64.38;96497.19;8282224;28;20668;-80
2020/12/08 04:33:32;;;;;;;17.10;15.50;;;;;;;4.87;64.95;96497.50;8281612;28;20221;-80
2020/12/08 04:37:34;;;;;;;18.07;16.27;;;;;;;5.12;64.04;96495.53;8283037;28;20557;-80
2020/12/08 04:41:36;;;;;;;18.00;16.30;;;;;;;4.84;64.81;96505.31;8284951;28;20236;-80
2020/12/08 04:45:38;;;;;;;19.57;17.07;;;;;;;5.01;64.38;96496.03;8286012;28;20568;-81
2020/12/08 04:49:41;;;;;;;19.10;17.23;;;;;;;4.75;65.21;96504.91;8286671;28;20221;-81
2020/12/08 04:53:43;;;;;;;18.47;16.67;;;;;;;4.94;64.87;96503.16;8267544;28;20233;-81
2020/12/08 04:57:45;;;;;;;18.43;16.57;;;;;;;5.41;63.98;96512.97;8282579;28;20206;-81
2020/12/08 05:01:46;;;;;;;19.53;17.43;;;;;;;5.51;63.17;96515.13;8283637;28;20197;-81
2020/12/08 05:05:49;;;;;;;19.80;17.30;;;;;;;5.68;62.96;96517.72;8267665;28;20229;-81
2020/12/08 05:09:51;;;;;;;19.40;17.40;;;;;;;5.74;62.89;96512.28;8285594;28;20198;-81
2020/12/08 05:13:57;;;;;;;19.43;17.33;;;;;;;5.80;62.84;96513.72;8287569;28;20225;-81
2020/12/08 05:18:10;;;;;;;19.00;17.00;;;;;;;5.85;62.69;96511.78;8290416;28;20197;-81
2020/12/08 05:22:12;;;;;;;21.10;18.47;;;;;;;5.79;62.93;96510.34;8282127;28;20198;-80
2020/12/08 05:26:16;;;;;;;20.40;18.17;;;;;;;5.83;62.95;96500.75;8285493;28;20661;-79
2020/12/08 05:30:18;;;;;;;21.23;16.20;;;;;;;5.94;62.64;96510.47;8287676;28;20213;-81
2020/12/08 05:34:22;;;;;;;22.83;20.33;;;;;;;5.82;62.50;96510.16;8286574;28;20229;-82
2020/12/08 05:38:28;;;;;;;20.73;18.63;;;;;;;5.96;62.41;96509.53;8286581;28;20210;-82
2020/12/08 05:42:32;;;;;;;21.77;19.57;;;;;;;5.88;62.25;96504.75;8286586;28;20209;-81
2020/12/08 05:46:41;;;;;;;23.17;20.77;;;;;;;5.92;62.36;96494.31;8291016;28;20605;-81
2020/12/08 05:50:43;;;;;;;24.27;21.77;;;;;;;5.94;62.40;96502.75;8290979;28;20201;-82
2020/12/08 05:54:46;;;;;;;24.60;21.80;;;;;;;5.97;62.53;96516.34;8291363;28;20237;-81
2020/12/08 05:58:54;;;;;;;26.07;23.27;;;;;;;6.04;62.01;96512.56;8291804;28;20564;-81
2020/12/08 06:03:08;;;;;;;24.63;21.97;;;;;;;6.04;62.21;96507.41;8291286;28;20213;-80
2020/12/08 06:07:10;;;;;;;24.83;22.23;;;;;;;6.04;62.41;96504.84;8291174;28;20242;-80
2020/12/08 06:11:12;;;;;;;27.33;24.13;;;;;;;6.14;62.11;96514.69;8292995;28;20224;-80
2020/12/08 06:15:21;;;;;;;25.07;22.33;;;;;;;6.03;62.22;96518.59;8287555;28;20237;-78
2020/12/08 06:19:23;;;;;;;26.43;23.63;;;;;;;5.94;62.31;96508.75;8286369;28;20194;-79
2020/12/08 06:23:25;;;;;;;26.57;22.63;;;;;;;6.00;62.33;96512.81;8291487;28;20210;-80
2020/12/08 06:27:28;;;;;;;27.80;24.90;;;;;;;5.57;62.92;96513.09;8297097;28;20201;-80
2020/12/08 06:31:29;;;;;;;29.57;24.97;;;;;;;5.67;62.90;96519.47;8292937;28;20201;-79
2020/12/08 06:35:32;;;;;;;27.77;24.73;;;;;;;5.57;62.99;96515.66;8299424;28;20224;-79
2020/12/08 06:39:49;;;;;;;25.70;23.00;;;;;;;5.77;62.60;96511.28;8290563;28;20193;-80
2020/12/08 06:43:52;;;;;;;28.43;23.13;;;;;;;5.63;63.81;96519.66;8304280;28;20204;-80
2020/12/08 06:47:54;;;;;;;27.03;23.10;;;;;;;5.44;63.19;96520.53;8318787;28;20208;-80
2020/12/08 06:51:56;;;;;;;26.80;23.17;;;;;;;5.58;63.52;96516.47;8310655;28;20212;-79
2020/12/08 06:55:58;;;;;;;25.77;21.80;;;;;;;5.71;62.92;96511.59;8302152;28;20313;-79
2020/12/08 07:00:03;;;;;;;24.27;21.67;;;;;;;5.82;62.78;96511.91;8310275;28;20212;-79
2020/12/08 07:04:05;;;;;;;29.90;22.97;;;;;;;5.59;63.10;96516.41;8308763;28;20313;-79
2020/12/08 07:08:08;;;;;;;24.87;22.27;;;;;;;5.45;63.85;96516.25;8306211;28;20236;-79
2020/12/08 07:12:10;;;;;;;25.53;22.57;;;;;;;5.21;64.58;96516.47;8308249;28;20208;-79
2020/12/08 07:16:14;;;;;;;30.43;23.10;;;;;;;5.02;65.53;96538.75;8304903;28;20225;-79
2020/12/08 07:20:16;;;;;;;30.93;24.47;;;;;;;4.97;65.08;96551.78;8308116;28;20208;-79
2020/12/08 07:24:24;;;;;;;34.00;24.80;;;;;;;4.65;66.58;96566.00;8308569;28;20217;-79
2020/12/08 07:28:26;;;;;;;31.27;24.23;;;;;;;4.37;67.57;96564.59;8311149;28;20204;-79
2020/12/08 07:32:29;;;;;;;24.90;22.20;;;;;;;4.15;67.92;96561.28;8306644;28;20570;-79
2020/12/08 07:36:32;;;;;;;25.97;23.13;;;;;;;4.36;67.58;96562.09;8304464;28;20229;-79
2020/12/08 07:40:35;;;;;;;26.97;21.60;;;;;;;4.86;65.58;96571.94;8306737;28;20663;-80
2020/12/08 07:44:37;;;;;;;29.07;22.37;;;;;;;4.90;65.51;96570.91;8305978;28;20212;-79
2020/12/08 07:48:40;;;;;;;30.27;23.50;;;;;;;4.88;65.11;96581.22;8287439;28;20204;-80
2020/12/08 07:52:42;;;;;;;30.30;23.30;;;;;;;4.85;64.83;96572.84;8305088;28;20201;-80
2020/12/08 07:56:43;;;;;;;28.30;22.97;;;;;;;4.85;65.56;96573.66;8304876;28;20596;-78
2020/12/08 08:00:45;;;;;;;25.83;23.10;;;;;;;4.81;65.82;96581.56;8306029;28;20238;-79
2020/12/08 08:04:47;;;;;;;26.73;22.80;;;;;;;4.73;66.10;96584.47;8313155;28;20241;-79
2020/12/08 08:08:50;;;;;;;25.13;22.10;;;;;;;4.81;65.91;96582.38;8303184;28;20250;-79
2020/12/08 08:12:52;;;;;;;29.57;23.97;;;;;;;4.47;66.25;96578.72;8304346;28;20212;-79
2020/12/08 08:16:54;;;;;;;27.67;22.57;;;;;;;4.72;65.44;96577.66;8303021;28;20225;-79
2020/12/08 08:20:58;;;;;;;34.67;25.93;;;;;;;4.76;66.03;96579.22;8303826;28;20205;-79
2020/12/08 08:25:00;;;;;;;30.97;25.77;;;;;;;4.41;65.79;96578.97;8303316;28;20205;-79
2020/12/08 08:29:01;;;;;;;28.90;25.80;;;;;;;4.25;66.84;96575.38;8305687;28;20213;-79
2020/12/08 08:33:03;;;;;;;32.90;27.63;;;;;;;3.98;67.19;96580.75;8314035;28;20206;-80
2020/12/08 08:37:06;;;;;;;29.63;25.40;;;;;;;4.02;67.27;96586.56;8318086;28;20225;-80
2020/12/08 08:41:08;;;;;;;31.00;26.00;;;;;;;3.97;66.98;96578.22;8318462;28;20205;-79
2020/12/08 08:45:09;;;;;;;31.13;26.13;;;;;;;4.32;65.16;96589.59;8318835;28;20216;-80
2020/12/08 08:49:14;;;;;;;28.67;24.70;;;;;;;4.56;65.43;96592.03;8303378;28;20213;-79
2020/12/08 08:53:17;;;;;;;32.07;26.00;;;;;;;4.33;65.47;96598.13;8302332;28;20208;-80
2020/12/08 08:57:18;;;;;;;36.30;25.53;;;;;;;3.90;66.41;96590.44;8291763;28;20579;-80
2020/12/08 09:01:20;;;;;;;28.33;24.73;;;;;;;4.26;65.20;96592.41;8283178;28;20233;-81
2020/12/08 09:05:22;;;;;;;31.00;25.70;;;;;;;4.79;64.33;96599.59;8311788;28;20244;-80
2020/12/08 09:09:24;;;;;;;27.73;24.70;;;;;;;5.12;63.29;96603.31;8306599;28;20210;-80
2020/12/08 09:13:26;;;;;;;26.23;18.13;;;;;;;6.24;86.72;96603.28;8312845;28;20212;-82
2020/12/08 09:17:28;;;;;;;30.27;25.97;;;;;;;5.66;62.99;96607.69;8291926;28;20228;-79
2020/12/08 09:21:30;;;;;;;28.37;25.37;;;;;;;4.98;63.09;96603.91;8303696;28;20204;-79
2020/12/08 09:25:32;;;;;;;28.73;25.50;;;;;;;4.83;63.49;96607.97;8302484;28;20575;-79
2020/12/08 09:29:35;;;;;;;29.60;25.70;;;;;;;5.06;63.05;96609.53;8303676;28;20208;-79
2020/12/08 09:33:38;;;;;;;28.80;22.97;;;;;;;4.72;63.42;96598.16;8303463;28;20229;-80
2020/12/08 09:37:39;;;;;;;25.43;22.73;;;;;;;4.76;63.13;96594.59;8303210;28;20229;-79
2020/12/08 09:41:42;;;;;;;25.57;22.83;;;;;;;4.72;63.46;96598.16;8303077;28;20209;-79
2020/12/08 09:45:44;;;;;;;29.43;23.77;;;;;;;4.86;63.13;96592.47;8301654;28;20259;-78
2020/12/08 09:49:46;;;;;;;28.40;24.20;;;;;;;4.72;62.85;96599.91;8300178;28;20201;-79
2020/12/08 09:53:48;;;;;;;22.27;19.53;;;;;;;7.00;67.99;96597.78;8311112;28;20259;-80
2020/12/08 09:57:51;;;;;;;21.20;19.00;;;;;;;8.43;57.03;96587.41;8312101;28;20610;-80
2020/12/08 10:01:53;;;;;;;23.10;20.57;;;;;;;7.36;56.97;96586.44;8312234;28;20656;-79
2020/12/08 10:05:56;;;;;;;26.13;23.33;;;;;;;6.68;56.50;96591.69;8299455;28;20568;-78
2020/12/08 10:09:57;;;;;;;27.17;22.97;;;;;;;6.26;58.55;96588.59;8300321;28;20201;-78
2020/12/08 10:14:00;;;;;;;26.47;23.63;;;;;;;5.64;59.96;96577.84;8309436;28;20212;-78
2020/12/08 10:18:02;;;;;;;24.00;21.40;;;;;;;5.34;60.25;96568.06;8309086;28;20201;-78
2020/12/08 10:22:04;;;;;;;25.17;22.57;;;;;;;5.55;60.20;96562.88;8308137;28;20205;-78
2020/12/08 10:26:05;;;;;;;26.47;23.13;;;;;;;5.19;61.18;96574.72;8308497;28;20209;-78
2020/12/08 10:30:08;;;;;;;26.03;23.33;;;;;;;5.00;62.38;96567.03;8308801;28;20201;-78
2020/12/08 10:34:10;;;;;;;25.67;22.97;;;;;;;5.30;61.09;96574.25;8308244;28;20224;-78
2020/12/08 10:38:13;;;;;;;43.07;24.67;;;;;;;4.80;62.20;96578.19;8307805;28;20244;-78
2020/12/08 10:42:15;;;;;;;26.13;23.37;;;;;;;5.29;60.70;96578.56;8305144;28;20616;-78
2020/12/08 10:46:17;;;;;;;27.13;23.17;;;;;;;5.20;61.61;96583.28;8304554;28;20218;-78
2020/12/08 10:50:19;;;;;;;24.73;21.13;;;;;;;5.61;60.27;96593.38;8304422;28;20204;-79
2020/12/08 10:54:21;;;;;;;22.43;19.13;;;;;;;5.48;60.60;96604.25;8304344;28;20233;-78
2020/12/08 10:58:23;;;;;;;22.43;20.13;;;;;;;6.13;59.20;96608.97;8304494;28;20681;-77
2020/12/08 11:02:25;;;;;;;25.60;20.17;;;;;;;6.30;58.43;96597.84;8294579;28;20206;-78
2020/12/08 11:06:28;;;;;;;22.20;19.83;;;;;;;6.42;58.37;96602.38;8271537;28;20241;-78
2020/12/08 11:10:30;;;;;;;22.17;19.17;;;;;;;6.62;57.64;96597.97;8280796;28;20202;-78
2020/12/08 11:14:32;;;;;;;22.63;20.10;;;;;;;6.74;56.94;96596.53;8300907;28;20259;-77
2020/12/08 11:18:34;;;;;;;22.27;19.87;;;;;;;6.72;57.46;96593.19;8283103;28;20560;-78
2020/12/08 11:22:36;;;;;;;21.93;18.97;;;;;;;6.72;56.88;96590.63;8302348;28;20609;-78
2020/12/08 11:26:38;;;;;;;21.20;19.00;;;;;;;6.75;56.35;96583.59;8302763;28;20259;-78
2020/12/08 11:30:40;;;;;;;21.80;19.30;;;;;;;6.68;55.70;96569.38;8303299;28;20201;-78
2020/12/08 11:34:42;;;;;;;23.65;21.20;;;;;;;7.56;54.26;96557.88;8301633;28;20447;-78
2020/12/08 11:38:44;;;;;;;22.00;17.60;;;;;;;7.10;55.15;96562.06;8299597;28;20237;-77
2020/12/08 11:42:48;;;;;;;19.90;17.70;;;;;;;7.23;55.44;96555.38;8306913;28;20237;-78
2020/12/08 11:46:50;;;;;;;17.57;15.77;;;;;;;7.17;55.39;96553.13;8305767;28;20197;-78
2020/12/08 11:50:53;;;;;;;17.90;16.00;;;;;;;7.19;55.11;96559.84;8305510;28;20645;-79
2020/12/08 11:54:56;;;;;;;17.80;15.90;;;;;;;6.99;55.63;96558.34;8303903;28;20310;-78
2020/12/08 11:58:57;;;;;;;19.63;16.37;;;;;;;7.28;56.46;96552.56;8302645;28;20205;-78
2020/12/08 12:02:59;;;;;;;18.87;15.70;;;;;;;7.34;56.46;96539.34;8302167;28;20223;-78
2020/12/08 12:07:01;;;;;;;18.20;16.30;;;;;;;8.07;54.35;96539.56;8299466;28;20895;-78
2020/12/08 12:11:03;;;;;;;20.73;14.40;;;;;;;7.50;55.08;96534.19;8301517;28;20216;-79
2020/12/08 12:15:05;;;;;;;14.87;13.00;;;;;;;7.71;55.38;96534.75;8301724;28;20229;-78
2020/12/08 12:19:07;;;;;;;16.13;14.50;;;;;;;7.69;54.31;96532.28;8301666;28;20640;-78
2020/12/08 12:23:09;;;;;;;15.23;13.63;;;;;;;7.32;54.67;96531.69;8301834;28;20672;-78
2020/12/08 12:27:11;;;;;;;16.00;13.50;;;;;;;7.14;54.98;96525.81;8300881;28;20208;-78
2020/12/08 12:31:13;;;;;;;15.53;13.90;;;;;;;7.40;55.45;96520.97;8300462;28;20205;-78
2020/12/08 12:35:15;;;;;;;15.97;12.37;;;;;;;7.58;54.41;96519.16;8300556;28;20229;-78
2020/12/08 12:39:18;;;;;;;16.07;12.87;;;;;;;7.62;54.64;96511.16;8300871;28;20555;-78
2020/12/08 12:43:19;;;;;;;15.90;13.37;;;;;;;7.62;54.52;96520.63;8298066;28;20197;-78
2020/12/08 12:47:21;;;;;;;13.85;10.95;;;;;;;7.92;52.02;96510.34;8298568;28;20431;-78
2020/12/08 12:51:23;;;;;;;13.27;10.15;;;;;;;8.08;51.02;96512.06;8299021;28;20443;-78
2020/12/08 12:55:26;;;;;;;12.00;9.40;;;;;;;8.51;50.76;96509.56;8298388;28;20792;-78
2020/12/08 12:59:27;;;;;;;12.50;9.40;;;;;;;7.91;51.88;96506.09;8300390;28;20207;-78
2020/12/08 13:03:29;;;;;;;12.57;9.83;;;;;;;8.00;51.95;96503.00;8282229;28;20681;-79
2020/12/08 13:07:31;;;;;;;15.13;10.70;;;;;;;8.19;52.29;96496.81;8270269;28;20237;-78
2020/12/08 13:11:33;;;;;;;12.93;10.90;;;;;;;8.32;52.68;96502.06;8269706;28;20205;-78
2020/12/08 13:15:35;;;;;;;13.93;10.77;;;;;;;8.33;52.62;96503.72;8268283;28;20249;-78
2020/12/08 13:19:37;;;;;;;12.77;10.73;;;;;;;8.30;52.64;96514.22;8267227;28;20208;-78
2020/12/08 13:23:42;;;;;;;13.40;10.17;;;;;;;8.66;51.68;96502.66;8266592;28;20211;-78
2020/12/08 13:27:45;;;;;;;14.53;10.50;;;;;;;8.68;51.49;96491.34;8273381;28;20212;-79
2020/12/08 13:31:47;;;;;;;11.13;9.67;;;;;;;8.75;51.70;96484.06;8270821;28;20213;-79
2020/12/08 13:35:49;;;;;;;18.20;10.77;;;;;;;8.70;51.83;96481.75;8272424;28;20229;-79
2020/12/08 13:39:51;;;;;;;10.17;9.10;;;;;;;8.73;51.66;96483.31;8271782;28;20205;-79
2020/12/08 13:43:54;;;;;;;12.63;9.63;;;;;;;8.60;52.30;96485.81;8299773;28;20229;-79
2020/12/08 13:47:56;;;;;;;10.37;9.27;;;;;;;8.55;52.48;96474.94;8304979;28;20638;-79
2020/12/08 13:51:58;;;;;;;12.17;9.80;;;;;;;8.56;52.82;96467.09;8306535;28;20212;-79
2020/12/08 13:55:59;;;;;;;10.30;9.07;;;;;;;8.56;52.43;96474.00;8306127;28;20233;-79
2020/12/08 14:00:04;;;;;;;10.13;8.63;;;;;;;8.46;52.58;96478.06;8305136;28;20324;-78
2020/12/08 14:04:06;;;;;;;9.70;8.40;;;;;;;8.38;52.17;96475.91;8282153;28;20229;-78
2020/12/08 14:08:08;;;;;;;15.63;9.47;;;;;;;8.27;52.87;96479.13;8273733;28;20241;-78
2020/12/08 14:12:09;;;;;;;11.83;8.97;;;;;;;8.14;52.72;96479.00;8272589;28;20202;-78
2020/12/08 14:16:17;;;;;;;13.90;10.00;;;;;;;8.15;53.11;96480.69;8272424;28;20241;-78
2020/12/08 14:20:19;;;;;;;12.67;9.57;;;;;;;8.07;53.69;96487.19;8272337;28;20194;-79
2020/12/08 14:24:24;;;;;;;12.70;9.73;;;;;;;8.13;53.45;96489.41;8272689;28;20210;-78
2020/12/08 14:28:26;;;;;;;14.67;10.70;;;;;;;8.14;53.85;96499.63;8288602;28;20562;-78
2020/12/08 14:32:43;;;;;;;13.87;9.60;;;;;;;8.18;54.08;96511.41;8240251;28;20191;-78
2020/12/08 14:36:45;;;;;;;12.57;8.90;;;;;;;8.14;54.05;96507.38;8240831;28;20237;-78
2020/12/08 14:40:46;;;;;;;12.37;8.93;;;;;;;8.08;54.49;96512.06;8240004;28;20552;-78
2020/12/08 14:44:49;;;;;;;12.93;9.37;;;;;;;7.93;54.45;96517.16;8239944;28;20208;-77
2020/12/08 14:48:52;;;;;;;10.63;8.93;;;;;;;7.97;54.96;96517.81;8239649;28;20219;-78
2020/12/08 14:52:53;;;;;;;11.73;9.20;;;;;;;7.85;55.33;96524.50;8239080;28;20245;-78
2020/12/08 14:56:58;;;;;;;13.07;9.33;;;;;;;7.75;55.09;96531.94;8237494;28;20226;-78
2020/12/08 15:01:00;;;;;;;10.73;8.97;;;;;;;7.72;54.78;96531.25;8238433;28;20214;-78
2020/12/08 15:05:03;;;;;;;18.00;10.30;;;;;;;7.69;55.39;96534.84;8269217;28;20234;-78
2020/12/08 15:09:04;;;;;;;11.07;9.73;;;;;;;7.59;54.92;96531.94;8271175;28;20221;-78
2020/12/08 15:13:06;;;;;;;16.73;9.30;;;;;;;7.57;55.09;96538.09;8271270;28;20580;-78
2020/12/08 15:17:08;;;;;;;12.50;9.80;;;;;;;7.53;54.96;96540.00;8271018;28;20233;-78
2020/12/08 15:21:19;;;;;;;13.53;10.10;;;;;;;7.52;55.28;96540.06;8271492;28;20190;-78
2020/12/08 15:25:21;;;;;;;15.17;10.27;;;;;;;7.50;54.79;96545.34;8270880;28;20784;-78
2020/12/08 15:29:23;;;;;;;14.63;9.63;;;;;;;7.36;55.44;96538.34;8270837;28;20201;-78
2020/12/08 15:33:25;;;;;;;18.80;10.90;;;;;;;7.40;55.64;96532.09;8270538;28;20210;-78
2020/12/08 15:37:27;;;;;;;19.60;11.73;;;;;;;7.36;55.88;96535.75;8269901;28;20225;-78
2020/12/08 15:41:29;;;;;;;18.43;10.13;;;;;;;7.42;55.83;96532.03;8270158;28;20202;-77
2020/12/08 15:45:31;;;;;;;18.37;11.33;;;;;;;7.37;55.45;96534.88;8270397;28;20685;-78
2020/12/08 15:49:33;;;;;;;22.50;13.33;;;;;;;7.34;55.77;96540.16;8270349;28;20209;-78
2020/12/08 15:53:35;;;;;;;21.87;12.50;;;;;;;7.35;56.12;96553.88;8272486;28;20593;-78
2020/12/08 15:57:37;;;;;;;20.43;14.30;;;;;;;7.26;56.46;96546.66;8269618;28;20234;-78
2020/12/08 16:01:39;;;;;;;43.00;31.53;;;;;;;7.21;56.62;96549.47;8268459;28;20238;-78
2020/12/08 16:05:40;;;;;;;39.93;31.13;;;;;;;7.07;57.02;96557.94;8292298;28;20236;-78
2020/12/08 16:09:43;;;;;;;16.60;12.03;;;;;;;7.10;56.67;96560.34;8294425;28;20205;-78
2020/12/08 16:13:45;;;;;;;13.00;10.60;;;;;;;6.97;57.25;96561.91;8289691;28;20212;-79
2020/12/08 16:17:48;;;;;;;13.50;11.10;;;;;;;7.01;55.93;96563.41;8304284;28;20222;-79
2020/12/08 16:21:50;;;;;;;13.17;10.20;;;;;;;7.05;56.64;96565.72;8292288;28;20194;-79
2020/12/08 16:25:52;;;;;;;12.30;8.83;;;;;;;6.96;55.72;96580.81;8286800;28;20218;-80
2020/12/08 16:29:54;;;;;;;12.63;9.10;;;;;;;6.95;56.08;96567.13;8282081;28;20209;-81
2020/12/08 16:33:56;;;;;;;12.30;9.70;;;;;;;6.91;55.67;96570.78;8314596;28;20197;-81
2020/12/08 16:37:59;;;;;;;14.40;10.77;;;;;;;6.82;56.14;96573.81;8295202;28;20220;-81
2020/12/08 16:42:03;;;;;;;16.00;9.93;;;;;;;6.88;55.98;96576.06;8278920;28;20221;-81
2020/12/08 16:46:04;;;;;;;11.90;10.63;;;;;;;6.91;56.02;96582.78;8276510;28;20574;-80
2020/12/08 16:50:08;;;;;;;11.70;9.93;;;;;;;6.84;55.64;96582.28;8286365;28;20237;-80
2020/12/08 16:54:10;;;;;;;11.63;9.90;;;;;;;6.83;55.32;96593.47;8288574;28;20226;-80
2020/12/08 16:58:13;;;;;;;15.33;10.80;;;;;;;6.81;55.83;96603.03;8294048;28;20236;-81
2020/12/08 17:02:15;;;;;;;11.93;10.00;;;;;;;6.86;55.72;96593.34;8300913;28;20573;-80
2020/12/08 17:06:18;;;;;;;15.00;11.40;;;;;;;6.81;55.89;96598.72;8311324;28;20236;-80
2020/12/08 17:10:20;;;;;;;17.13;12.40;;;;;;;6.79;55.68;96605.66;8310563;28;20679;-82
2020/12/08 17:14:23;;;;;;;17.40;13.03;;;;;;;6.80;56.22;96611.69;8310874;28;20216;-80
2020/12/08 17:18:25;;;;;;;14.03;11.63;;;;;;;6.79;55.93;96602.28;8311983;28;20698;-80
2020/12/08 17:22:26;;;;;;;13.50;11.27;;;;;;;6.72;55.69;96600.91;8308384;28;20223;-81
2020/12/08 17:26:28;;;;;;;13.77;11.10;;;;;;;6.71;55.75;96620.69;8285665;28;20222;-80
2020/12/08 17:30:43;;;;;;;17.47;14.47;;;;;;;6.71;55.13;96630.16;8278494;28;20735;-81
2020/12/08 17:34:45;;;;;;;22.80;19.20;;;;;;;6.51;55.12;96625.97;8276797;28;20198;-81
2020/12/08 17:38:47;;;;;;;24.63;20.70;;;;;;;6.69;55.79;96625.06;8272961;28;20225;-79
2020/12/08 17:42:49;;;;;;;17.57;14.03;;;;;;;6.61;56.00;96632.34;8275084;28;20210;-79
2020/12/08 17:46:51;;;;;;;17.33;14.57;;;;;;;6.55;56.30;96635.19;8276350;28;20205;-79
2020/12/08 17:50:53;;;;;;;14.93;13.20;;;;;;;6.44;56.71;96625.47;8275063;28;20205;-79
2020/12/08 17:54:55;;;;;;;19.90;17.80;;;;;;;6.47;56.37;96630.44;8271861;28;20545;-78
2020/12/08 17:58:57;;;;;;;17.53;15.73;;;;;;;6.44;56.44;96641.72;8275233;28;20312;-79
2020/12/08 18:03:00;;;;;;;16.10;13.70;;;;;;;6.32;56.86;96639.75;8269919;28;20664;-78
2020/12/08 18:07:02;;;;;;;15.57;12.80;;;;;;;6.34;56.95;96644.78;8272205;28;20819;-79
2020/12/08 18:11:07;;;;;;;12.67;11.37;;;;;;;6.41;56.88;96634.13;8276943;28;20213;-78
2020/12/08 18:15:09;;;;;;;13.10;11.73;;;;;;;6.36;56.75;96627.56;8281941;28;20205;-80
2020/12/08 18:19:12;;;;;;;11.90;10.47;;;;;;;6.42;56.92;96614.41;8283034;28;20272;-81
2020/12/08 18:23:14;;;;;;;11.87;10.23;;;;;;;6.43;56.88;96616.06;8284712;28;20202;-80
2020/12/08 18:27:16;;;;;;;14.90;11.87;;;;;;;6.37;56.81;96627.47;8284031;28;20213;-81
2020/12/08 18:31:18;;;;;;;12.87;11.17;;;;;;;6.41;57.39;96629.00;8287046;28;20201;-81
2020/12/08 18:35:21;;;;;;;20.17;12.47;;;;;;;6.66;67.56;96635.50;8291822;28;20650;-79
2020/12/08 18:39:22;;;;;;;27.43;12.43;;;;;;;9.57;66.84;96625.38;8278849;28;20209;-77
2020/12/08 18:43:24;;;;;;;15.57;10.37;;;;;;;9.99;54.43;96622.78;8272510;28;20208;-77
2020/12/08 18:47:26;;;;;;;15.27;13.47;;;;;;;8.31;53.10;96626.78;8271197;28;20212;-77
2020/12/08 18:51:29;;;;;;;27.40;19.77;;;;;;;7.64;53.63;96629.59;8292725;28;20197;-77
2020/12/08 18:55:31;;;;;;;57.87;30.67;;;;;;;7.35;54.43;96624.25;8271554;28;20316;-77